createdAt,value
2018-07-21T00:00:13.461Z,0
2018-07-21T00:01:18.630Z,0
2018-07-21T00:02:23.667Z,0
2018-07-21T00:03:29.346Z,0
2018-07-21T00:04:33.963Z,0
2018-07-21T00:05:39.129Z,0
2018-07-21T00:06:44.265Z,0
2018-07-21T00:07:49.731Z,0
2018-07-21T00:08:54.889Z,0
2018-07-21T00:10:00.771Z,0
2018-07-21T00:11:05.712Z,0
2018-07-21T00:12:11.203Z,0
2018-07-21T00:13:16.707Z,0
2018-07-21T00:14:21.958Z,0
2018-07-21T00:15:42.075Z,0
2018-07-21T00:16:46.653Z,0
2018-07-21T00:17:52.168Z,0
2018-07-21T00:18:57.459Z,0
2018-07-21T00:20:02.372Z,0
2018-07-21T00:21:07.323Z,0
2018-07-21T00:22:12.729Z,0
2018-07-21T00:23:17.318Z,0
2018-07-21T00:24:22.510Z,0
2018-07-21T00:25:28.206Z,0
2018-07-21T00:26:33.133Z,0
2018-07-21T00:27:38.634Z,0
2018-07-21T00:28:44.203Z,0
2018-07-21T00:29:49.683Z,0
2018-07-21T00:30:55.632Z,0
2018-07-21T00:32:01.120Z,0
2018-07-21T00:33:05.984Z,0
2018-07-21T00:34:11.531Z,0
2018-07-21T00:35:17.028Z,0
2018-07-21T00:36:21.606Z,0
2018-07-21T00:37:26.725Z,0
2018-07-21T00:38:31.905Z,0
2018-07-21T00:39:37.713Z,0
2018-07-21T00:40:43.261Z,0
2018-07-21T00:41:48.436Z,0
2018-07-21T00:42:54.213Z,0
2018-07-21T00:43:59.700Z,0
2018-07-21T00:45:04.085Z,0
2018-07-21T00:46:09.006Z,0
2018-07-21T00:47:14.470Z,0
2018-07-21T00:48:19.744Z,0
2018-07-21T00:49:24.979Z,0
2018-07-21T00:50:30.122Z,0
2018-07-21T00:51:35.070Z,0
2018-07-21T00:52:40.503Z,0
2018-07-21T00:53:45.390Z,0
2018-07-21T00:54:50.486Z,0
2018-07-21T00:55:55.659Z,0
2018-07-21T00:57:00.810Z,0
2018-07-21T00:58:05.567Z,0
2018-07-21T00:59:10.829Z,0
2018-07-21T01:00:16.258Z,0
2018-07-21T01:01:21.691Z,0
2018-07-21T01:02:26.875Z,0
2018-07-21T01:03:32.557Z,0
2018-07-21T01:04:37.986Z,0
2018-07-21T01:05:43.164Z,0
2018-07-21T01:06:48.845Z,0
2018-07-21T01:07:54.379Z,0
2018-07-21T01:08:59.557Z,0
2018-07-21T01:10:04.964Z,0
2018-07-21T01:11:10.084Z,0
2018-07-21T01:12:15.499Z,0
2018-07-21T01:13:20.989Z,0
2018-07-21T01:14:25.935Z,0
2018-07-21T01:15:31.240Z,0
2018-07-21T01:16:36.391Z,0
2018-07-21T01:17:41.564Z,0
2018-07-21T01:18:47.017Z,0
2018-07-21T01:19:52.175Z,0
2018-07-21T01:20:57.666Z,0
2018-07-21T01:22:02.652Z,0
2018-07-21T01:23:08.082Z,0
2018-07-21T01:24:12.711Z,0
2018-07-21T01:25:17.876Z,0
2018-07-21T01:26:22.734Z,0
2018-07-21T01:27:28.527Z,0
2018-07-21T01:28:33.488Z,0
2018-07-21T01:29:38.649Z,0
2018-07-21T01:30:43.813Z,0
2018-07-21T01:31:49.268Z,0
2018-07-21T01:32:54.710Z,0
2018-07-21T01:34:00.392Z,0
2018-07-21T01:35:05.555Z,0
2018-07-21T01:36:10.985Z,0
2018-07-21T01:37:16.219Z,0
2018-07-21T01:38:21.171Z,0
2018-07-21T01:39:41.222Z,0
2018-07-21T01:40:46.734Z,0
2018-07-21T01:41:51.709Z,0
2018-07-21T01:42:57.386Z,0
2018-07-21T01:44:02.819Z,0
2018-07-21T01:45:08.025Z,0
2018-07-21T01:46:13.578Z,0
2018-07-21T01:47:19.136Z,0
2018-07-21T01:48:24.575Z,0
2018-07-21T01:49:45.009Z,0
2018-07-21T01:50:49.875Z,0
2018-07-21T01:51:55.279Z,0
2018-07-21T01:53:00.465Z,0
2018-07-21T01:54:05.631Z,0
2018-07-21T01:55:11.324Z,0
2018-07-21T01:56:16.537Z,0
2018-07-21T01:57:21.687Z,0
2018-07-21T01:58:27.445Z,0
2018-07-21T01:59:32.975Z,0
2018-07-21T02:00:38.379Z,0
2018-07-21T02:01:43.057Z,0
2018-07-21T02:02:47.644Z,0
2018-07-21T02:03:53.480Z,0
2018-07-21T02:04:58.916Z,0
2018-07-21T02:06:03.577Z,0
2018-07-21T02:07:08.709Z,0
2018-07-21T02:08:14.270Z,0
2018-07-21T02:09:19.698Z,0
2018-07-21T02:10:25.213Z,0
2018-07-21T02:11:30.396Z,0
2018-07-21T02:12:35.745Z,0
2018-07-21T02:13:40.974Z,0
2018-07-21T02:14:45.863Z,0
2018-07-21T02:15:51.306Z,0
2018-07-21T02:16:56.477Z,0
2018-07-21T02:18:01.354Z,0
2018-07-21T02:19:06.110Z,0
2018-07-21T02:20:11.549Z,0
2018-07-21T02:21:16.406Z,0
2018-07-21T02:22:21.701Z,0
2018-07-21T02:23:27.208Z,0
2018-07-21T02:24:32.864Z,0
2018-07-21T02:25:38.009Z,0
2018-07-21T02:26:42.898Z,0
2018-07-21T02:27:48.440Z,0
2018-07-21T02:28:53.580Z,0
2018-07-21T02:29:58.768Z,0
2018-07-21T02:31:04.180Z,0
2018-07-21T02:32:09.083Z,0
2018-07-21T02:33:14.314Z,0
2018-07-21T02:34:20.025Z,0
2018-07-21T02:35:25.069Z,0
2018-07-21T02:36:29.993Z,0
2018-07-21T02:37:35.133Z,0
2018-07-21T02:38:40.043Z,0
2018-07-21T02:39:45.311Z,0
2018-07-21T02:40:49.618Z,0
2018-07-21T02:41:55.074Z,0
2018-07-21T02:43:00.556Z,0
2018-07-21T02:44:05.445Z,0
2018-07-21T02:45:10.029Z,0
2018-07-21T02:46:15.527Z,0
2018-07-21T02:47:21.021Z,0
2018-07-21T02:48:27.060Z,0
2018-07-21T02:49:31.953Z,0
2018-07-21T02:50:36.933Z,0
2018-07-21T02:51:42.335Z,0
2018-07-21T02:52:47.851Z,0
2018-07-21T02:53:53.360Z,0
2018-07-21T02:54:59.133Z,0
2018-07-21T02:56:04.295Z,0
2018-07-21T02:57:09.508Z,0
2018-07-21T02:58:14.895Z,0
2018-07-21T02:59:20.083Z,0
2018-07-21T03:00:40.380Z,0
2018-07-21T03:01:45.809Z,0
2018-07-21T03:02:50.675Z,0
2018-07-21T03:03:56.069Z,0
2018-07-21T03:05:01.288Z,0
2018-07-21T03:06:05.676Z,0
2018-07-21T03:07:10.790Z,0
2018-07-21T03:08:16.038Z,0
2018-07-21T03:09:21.468Z,0
2018-07-21T03:10:27.108Z,0
2018-07-21T03:11:32.538Z,0
2018-07-21T03:12:37.998Z,0
2018-07-21T03:13:43.420Z,0
2018-07-21T03:14:48.864Z,0
2018-07-21T03:15:54.361Z,0
2018-07-21T03:16:59.793Z,0
2018-07-21T03:18:05.281Z,0
2018-07-21T03:19:10.781Z,0
2018-07-21T03:20:16.223Z,0
2018-07-21T03:21:21.696Z,0
2018-07-21T03:22:41.694Z,0
2018-07-21T03:23:46.406Z,0
2018-07-21T03:24:52.181Z,0
2018-07-21T03:25:57.677Z,0
2018-07-21T03:27:02.641Z,0
2018-07-21T03:28:08.132Z,0
2018-07-21T03:29:13.016Z,0
2018-07-21T03:30:18.176Z,0
2018-07-21T03:31:23.722Z,0
2018-07-21T03:32:28.865Z,0
2018-07-21T03:33:34.416Z,0
2018-07-21T03:34:39.864Z,0
2018-07-21T03:35:45.008Z,0
2018-07-21T03:36:50.298Z,0
2018-07-21T03:37:55.836Z,0
2018-07-21T03:39:00.995Z,0
2018-07-21T03:40:06.520Z,0
2018-07-21T03:41:11.671Z,0
2018-07-21T03:42:17.107Z,0
2018-07-21T03:43:22.652Z,0
2018-07-21T03:44:28.103Z,0
2018-07-21T03:45:33.704Z,0
2018-07-21T03:46:38.887Z,0
2018-07-21T03:47:43.758Z,0
2018-07-21T03:48:48.690Z,0
2018-07-21T03:49:53.888Z,0
2018-07-21T03:50:58.787Z,0
2018-07-21T03:52:04.299Z,0
2018-07-21T03:53:09.450Z,0
2018-07-21T03:54:14.378Z,0
2018-07-21T03:55:19.642Z,0
2018-07-21T03:56:24.219Z,0
2018-07-21T03:57:30.007Z,0
2018-07-21T03:58:35.478Z,0
2018-07-21T03:59:40.669Z,0
2018-07-21T04:00:45.541Z,0
2018-07-21T04:01:50.704Z,0
2018-07-21T04:02:55.846Z,0
2018-07-21T04:04:01.545Z,0
2018-07-21T04:05:06.157Z,0
2018-07-21T04:06:11.105Z,0
2018-07-21T04:07:17.046Z,0
2018-07-21T04:08:22.204Z,0
2018-07-21T04:09:27.757Z,0
2018-07-21T04:10:32.676Z,0
2018-07-21T04:11:37.830Z,0
2018-07-21T04:12:42.942Z,0
2018-07-21T04:13:48.140Z,0
2018-07-21T04:14:53.290Z,0
2018-07-21T04:15:58.519Z,0
2018-07-21T04:17:03.109Z,0
2018-07-21T04:18:08.264Z,0
2018-07-21T04:19:13.674Z,0
2018-07-21T04:20:18.855Z,0
2018-07-21T04:21:24.287Z,0
2018-07-21T04:22:30.908Z,0
2018-07-21T04:23:36.166Z,0
2018-07-21T04:24:41.565Z,0
2018-07-21T04:25:46.717Z,0
2018-07-21T04:26:51.885Z,0
2018-07-21T04:27:57.099Z,0
2018-07-21T04:29:02.527Z,0
2018-07-21T04:30:07.719Z,0
2018-07-21T04:31:13.154Z,0
2018-07-21T04:32:18.307Z,0
2018-07-21T04:33:22.922Z,0
2018-07-21T04:34:28.528Z,0
2018-07-21T04:35:33.680Z,0
2018-07-21T04:36:39.110Z,0
2018-07-21T04:37:44.538Z,0
2018-07-21T04:38:49.689Z,0
2018-07-21T04:39:55.390Z,0
2018-07-21T04:41:00.537Z,0
2018-07-21T04:42:05.693Z,0
2018-07-21T04:43:10.823Z,0
2018-07-21T04:44:16.047Z,0
2018-07-21T04:45:21.252Z,0
2018-07-21T04:46:41.678Z,0
2018-07-21T04:47:46.826Z,0
2018-07-21T04:48:51.948Z,0
2018-07-21T04:49:57.104Z,0
2018-07-21T04:51:02.534Z,0
2018-07-21T04:52:08.029Z,0
2018-07-21T04:53:13.180Z,0
2018-07-21T04:54:18.321Z,0
2018-07-21T04:55:23.711Z,0
2018-07-21T04:56:28.629Z,0
2018-07-21T04:57:34.031Z,0
2018-07-21T04:58:39.235Z,0
2018-07-21T04:59:44.734Z,0
2018-07-21T05:00:50.298Z,0
2018-07-21T05:01:55.720Z,0
2018-07-21T05:03:00.874Z,0
2018-07-21T05:04:06.296Z,0
2018-07-21T05:05:11.727Z,0
2018-07-21T05:06:16.868Z,6
2018-07-21T05:07:22.699Z,6
2018-07-21T05:08:28.218Z,6
2018-07-21T05:09:33.622Z,6
2018-07-21T05:10:38.210Z,6
2018-07-21T05:11:43.679Z,6
2018-07-21T05:12:49.353Z,6
2018-07-21T05:13:54.781Z,6
2018-07-21T05:15:00.272Z,6
2018-07-21T05:16:05.585Z,6
2018-07-21T05:17:11.010Z,6
2018-07-21T05:18:16.235Z,6
2018-07-21T05:19:21.934Z,6
2018-07-21T05:20:27.076Z,6
2018-07-21T05:21:32.814Z,6
2018-07-21T05:22:38.245Z,6
2018-07-21T05:23:43.492Z,6
2018-07-21T05:24:49.230Z,6
2018-07-21T05:25:54.377Z,6
2018-07-21T05:26:59.241Z,6
2018-07-21T05:28:04.116Z,6
2018-07-21T05:29:08.971Z,6
2018-07-21T05:30:14.404Z,6
2018-07-21T05:31:19.840Z,6
2018-07-21T05:32:25.263Z,6
2018-07-21T05:33:31.387Z,0
2018-07-21T05:34:36.996Z,0
2018-07-21T05:35:42.253Z,0
2018-07-21T05:36:47.925Z,0
2018-07-21T05:37:53.090Z,0
2018-07-21T05:38:58.656Z,0
2018-07-21T05:40:03.847Z,6
2018-07-21T05:41:09.278Z,6
2018-07-21T05:42:14.805Z,6
2018-07-21T05:43:20.359Z,6
2018-07-21T05:44:25.572Z,6
2018-07-21T05:45:31.116Z,6
2018-07-21T05:46:35.980Z,0
2018-07-21T05:47:40.832Z,0
2018-07-21T05:48:46.685Z,0
2018-07-21T05:49:51.532Z,0
2018-07-21T05:50:56.958Z,0
2018-07-21T05:52:02.216Z,0
2018-07-21T05:53:07.187Z,0
2018-07-21T05:54:12.497Z,0
2018-07-21T05:55:17.890Z,0
2018-07-21T05:56:23.075Z,6
2018-07-21T05:57:28.679Z,6
2018-07-21T05:58:33.830Z,6
2018-07-21T05:59:39.023Z,6
2018-07-21T06:00:44.740Z,6
2018-07-21T06:01:49.889Z,6
2018-07-21T06:02:55.501Z,6
2018-07-21T06:04:01.144Z,6
2018-07-21T06:05:06.297Z,0
2018-07-21T06:06:11.178Z,0
2018-07-21T06:07:16.011Z,0
2018-07-21T06:08:21.184Z,0
2018-07-21T06:09:26.724Z,0
2018-07-21T06:10:31.633Z,0
2018-07-21T06:11:36.778Z,0
2018-07-21T06:12:42.235Z,0
2018-07-21T06:13:47.144Z,0
2018-07-21T06:14:52.568Z,0
2018-07-21T06:15:58.259Z,0
2018-07-21T06:17:03.536Z,0
2018-07-21T06:18:08.834Z,0
2018-07-21T06:19:14.303Z,0
2018-07-21T06:20:19.756Z,0
2018-07-21T06:21:39.966Z,0
2018-07-21T06:22:44.849Z,0
2018-07-21T06:23:50.584Z,0
2018-07-21T06:24:56.379Z,0
2018-07-21T06:26:01.629Z,0
2018-07-21T06:27:06.219Z,0
2018-07-21T06:28:12.425Z,0
2018-07-21T06:29:17.589Z,0
2018-07-21T06:30:22.530Z,0
2018-07-21T06:31:42.588Z,0
2018-07-21T06:32:47.625Z,0
2018-07-21T06:33:53.221Z,0
2018-07-21T06:34:57.803Z,0
2018-07-21T06:36:02.427Z,0
2018-07-21T06:37:08.228Z,0
2018-07-21T06:38:13.114Z,0
2018-07-21T06:39:18.625Z,0
2018-07-21T06:40:24.404Z,0
2018-07-21T06:41:29.939Z,0
2018-07-21T06:42:35.970Z,0
2018-07-21T06:43:41.412Z,0
2018-07-21T06:44:46.566Z,0
2018-07-21T06:45:52.200Z,0
2018-07-21T06:46:57.625Z,0
2018-07-21T06:48:02.210Z,0
2018-07-21T06:49:07.844Z,0
2018-07-21T06:50:13.342Z,0
2018-07-21T06:51:18.761Z,0
2018-07-21T06:52:23.912Z,0
2018-07-21T06:53:29.063Z,0
2018-07-21T06:54:34.334Z,0
2018-07-21T06:55:39.435Z,0
2018-07-21T06:56:44.351Z,0
2018-07-21T06:57:50.176Z,0
2018-07-21T06:58:55.412Z,0
2018-07-21T07:00:00.322Z,0
2018-07-21T07:01:05.293Z,0
2018-07-21T07:02:10.448Z,0
2018-07-21T07:03:15.952Z,0
2018-07-21T07:04:20.605Z,0
2018-07-21T07:05:26.064Z,0
2018-07-21T07:06:31.172Z,0
2018-07-21T07:07:36.581Z,0
2018-07-21T07:08:41.776Z,0
2018-07-21T07:09:47.185Z,0
2018-07-21T07:10:52.684Z,0
2018-07-21T07:11:57.897Z,0
2018-07-21T07:13:02.738Z,0
2018-07-21T07:14:07.705Z,0
2018-07-21T07:15:13.184Z,0
2018-07-21T07:16:18.635Z,0
2018-07-21T07:17:23.451Z,0
2018-07-21T07:18:29.390Z,0
2018-07-21T07:19:34.539Z,0
2018-07-21T07:20:39.745Z,0
2018-07-21T07:21:45.226Z,0
2018-07-21T07:22:50.097Z,0
2018-07-21T07:23:54.972Z,0
2018-07-21T07:25:00.385Z,0
2018-07-21T07:26:05.867Z,0
2018-07-21T07:27:11.023Z,0
2018-07-21T07:28:16.710Z,0
2018-07-21T07:29:22.255Z,0
2018-07-21T07:30:27.704Z,0
2018-07-21T07:31:32.854Z,0
2018-07-21T07:32:38.033Z,0
2018-07-21T07:33:43.756Z,0
2018-07-21T07:34:49.265Z,0
2018-07-21T07:35:54.746Z,0
2018-07-21T07:37:00.510Z,0
2018-07-21T07:38:05.990Z,0
2018-07-21T07:39:11.580Z,0
2018-07-21T07:40:16.973Z,0
2018-07-21T07:41:22.401Z,0
2018-07-21T07:42:28.383Z,0
2018-07-21T07:43:33.538Z,0
2018-07-21T07:44:39.039Z,0
2018-07-21T07:45:44.743Z,6
2018-07-21T07:46:49.604Z,6
2018-07-21T07:47:55.038Z,6
2018-07-21T07:48:59.890Z,6
2018-07-21T07:50:05.521Z,6
2018-07-21T07:51:10.494Z,6
2018-07-21T07:52:15.706Z,6
2018-07-21T07:53:21.316Z,6
2018-07-21T07:54:27.229Z,6
2018-07-21T07:55:32.755Z,6
2018-07-21T07:56:37.995Z,24
2018-07-21T07:57:43.486Z,24
2018-07-21T07:58:48.925Z,24
2018-07-21T07:59:54.364Z,24
2018-07-21T08:00:59.893Z,24
2018-07-21T08:02:04.916Z,24
2018-07-21T08:03:09.533Z,24
2018-07-21T08:04:15.034Z,24
2018-07-21T08:05:20.256Z,24
2018-07-21T08:06:40.844Z,24
2018-07-21T08:07:46.278Z,24
2018-07-21T08:08:51.764Z,24
2018-07-21T08:09:57.315Z,40
2018-07-21T08:11:02.220Z,40
2018-07-21T08:12:07.377Z,40
2018-07-21T08:13:12.776Z,40
2018-07-21T08:14:18.121Z,40
2018-07-21T08:15:23.916Z,13
2018-07-21T08:16:29.372Z,13
2018-07-21T08:17:34.257Z,13
2018-07-21T08:18:39.727Z,13
2018-07-21T08:19:45.154Z,13
2018-07-21T08:20:50.344Z,31
2018-07-21T08:21:55.332Z,31
2018-07-21T08:23:00.515Z,31
2018-07-21T08:24:05.706Z,31
2018-07-21T08:25:11.028Z,31
2018-07-21T08:26:16.692Z,48
2018-07-21T08:27:21.363Z,48
2018-07-21T08:28:41.414Z,48
2018-07-21T08:29:46.082Z,48
2018-07-21T08:30:51.488Z,48
2018-07-21T08:31:56.640Z,48
2018-07-21T08:33:02.073Z,48
2018-07-21T08:34:07.291Z,48
2018-07-21T08:35:12.725Z,48
2018-07-21T08:36:17.896Z,64
2018-07-21T08:37:23.293Z,37
2018-07-21T08:38:28.728Z,37
2018-07-21T08:39:34.379Z,37
2018-07-21T08:40:39.251Z,37
2018-07-21T08:41:44.408Z,37
2018-07-21T08:42:49.708Z,37
2018-07-21T08:43:55.138Z,37
2018-07-21T08:44:59.715Z,37
2018-07-21T08:46:04.877Z,37
2018-07-21T08:47:09.464Z,55
2018-07-21T08:48:14.356Z,55
2018-07-21T08:49:19.601Z,72
2018-07-21T08:50:24.822Z,72
2018-07-21T08:51:30.226Z,72
2018-07-21T08:52:35.403Z,62
2018-07-21T08:53:40.945Z,62
2018-07-21T08:54:46.172Z,62
2018-07-21T08:55:51.526Z,62
2018-07-21T08:56:57.033Z,72
2018-07-21T08:58:02.375Z,55
2018-07-21T08:59:07.257Z,37
2018-07-21T09:00:12.693Z,37
2018-07-21T09:01:18.466Z,37
2018-07-21T09:02:23.956Z,55
2018-07-21T09:03:29.638Z,37
2018-07-21T09:04:34.796Z,55
2018-07-21T09:05:40.360Z,55
2018-07-21T09:06:45.563Z,37
2018-07-21T09:07:50.996Z,37
2018-07-21T09:08:56.167Z,37
2018-07-21T09:10:01.619Z,37
2018-07-21T09:11:06.483Z,55
2018-07-21T09:12:11.919Z,55
2018-07-21T09:13:17.658Z,55
2018-07-21T09:14:22.820Z,55
2018-07-21T09:15:28.430Z,55
2018-07-21T09:16:33.588Z,37
2018-07-21T09:17:38.768Z,37
2018-07-21T09:18:44.363Z,37
2018-07-21T09:19:49.535Z,37
2018-07-21T09:20:54.678Z,37
2018-07-21T09:22:00.113Z,37
2018-07-21T09:23:05.599Z,37
2018-07-21T09:24:10.475Z,37
2018-07-21T09:25:16.064Z,37
2018-07-21T09:26:21.310Z,37
2018-07-21T09:27:27.231Z,37
2018-07-21T09:28:32.118Z,37
2018-07-21T09:29:37.311Z,37
2018-07-21T09:30:42.754Z,37
2018-07-21T09:31:47.912Z,55
2018-07-21T09:32:53.062Z,37
2018-07-21T09:33:58.570Z,37
2018-07-21T09:35:03.474Z,37
2018-07-21T09:36:08.429Z,37
2018-07-21T09:37:13.298Z,64
2018-07-21T09:38:18.485Z,48
2018-07-21T09:39:23.815Z,48
2018-07-21T09:40:43.373Z,48
2018-07-21T09:41:48.683Z,48
2018-07-21T09:42:54.088Z,48
2018-07-21T09:43:58.958Z,48
2018-07-21T09:45:04.122Z,31
2018-07-21T09:46:09.594Z,31
2018-07-21T09:47:15.085Z,31
2018-07-21T09:48:20.598Z,31
2018-07-21T09:49:25.832Z,31
2018-07-21T09:50:31.214Z,31
2018-07-21T09:51:36.898Z,13
2018-07-21T09:52:42.053Z,13
2018-07-21T09:53:46.917Z,13
2018-07-21T09:54:52.429Z,13
2018-07-21T09:55:57.469Z,13
2018-07-21T09:57:02.367Z,13
2018-07-21T09:58:06.937Z,13
2018-07-21T09:59:12.092Z,13
2018-07-21T10:00:17.257Z,31
2018-07-21T10:01:22.937Z,31
2018-07-21T10:02:28.099Z,31
2018-07-21T10:03:33.547Z,31
2018-07-21T10:04:38.424Z,31
2018-07-21T10:05:43.921Z,48
2018-07-21T10:06:49.456Z,48
2018-07-21T10:07:54.061Z,48
2018-07-21T10:08:59.037Z,37
2018-07-21T10:10:04.262Z,48
2018-07-21T10:11:09.506Z,48
2018-07-21T10:12:14.526Z,37
2018-07-21T10:13:20.208Z,37
2018-07-21T10:14:25.105Z,37
2018-07-21T10:15:31.059Z,37
2018-07-21T10:16:36.772Z,37
2018-07-21T10:17:42.200Z,37
2018-07-21T10:18:47.346Z,37
2018-07-21T10:19:52.541Z,37
2018-07-21T10:20:57.210Z,37
2018-07-21T10:22:02.665Z,37
2018-07-21T10:23:07.596Z,55
2018-07-21T10:24:12.541Z,55
2018-07-21T10:25:23.309Z,55
2018-07-21T10:26:28.762Z,55
2018-07-21T10:27:33.793Z,72
2018-07-21T10:28:38.962Z,79
2018-07-21T10:29:43.936Z,95
2018-07-21T10:30:49.341Z,86
2018-07-21T10:31:54.841Z,74
2018-07-21T10:32:59.989Z,92
2018-07-21T10:34:05.443Z,92
2018-07-21T10:35:09.808Z,92
2018-07-21T10:36:15.055Z,103
2018-07-21T10:37:20.490Z,103
2018-07-21T10:38:25.924Z,103
2018-07-21T10:39:31.681Z,95
2018-07-21T10:40:36.636Z,62
2018-07-21T10:41:41.789Z,62
2018-07-21T10:42:47.354Z,79
2018-07-21T10:43:51.995Z,95
2018-07-21T10:44:57.495Z,68
2018-07-21T10:46:02.807Z,68
2018-07-21T10:47:07.682Z,79
2018-07-21T10:48:12.569Z,95
2018-07-21T10:49:17.857Z,79
2018-07-21T10:50:23.317Z,68
2018-07-21T10:51:28.708Z,95
2018-07-21T10:52:34.228Z,92
2018-07-21T10:53:39.693Z,103
2018-07-21T10:54:45.148Z,103
2018-07-21T10:55:50.308Z,103
2018-07-21T10:56:55.178Z,103
2018-07-21T10:58:00.600Z,86
2018-07-21T10:59:05.297Z,95
2018-07-21T11:00:10.799Z,62
2018-07-21T11:01:16.073Z,62
2018-07-21T11:02:21.235Z,62
2018-07-21T11:03:41.111Z,95
2018-07-21T11:04:46.255Z,79
2018-07-21T11:05:51.418Z,62
2018-07-21T11:06:56.817Z,62
2018-07-21T11:08:02.130Z,79
2018-07-21T11:09:07.113Z,62
2018-07-21T11:10:11.947Z,62
2018-07-21T11:11:17.240Z,72
2018-07-21T11:12:22.119Z,62
2018-07-21T11:13:42.347Z,55
2018-07-21T11:14:47.225Z,55
2018-07-21T11:15:52.393Z,37
2018-07-21T11:16:57.552Z,55
2018-07-21T11:18:02.449Z,37
2018-07-21T11:19:07.058Z,64
2018-07-21T11:20:12.292Z,64
2018-07-21T11:21:17.739Z,48
2018-07-21T11:22:23.569Z,48
2018-07-21T11:23:29.055Z,48
2018-07-21T11:24:34.640Z,48
2018-07-21T11:25:40.279Z,48
2018-07-21T11:26:45.816Z,48
2018-07-21T11:27:51.664Z,48
2018-07-21T11:28:56.908Z,48
2018-07-21T11:30:01.820Z,48
2018-07-21T11:31:07.272Z,48
2018-07-21T11:32:11.855Z,48
2018-07-21T11:33:17.325Z,48
2018-07-21T11:34:23.015Z,48
2018-07-21T11:35:28.903Z,48
2018-07-21T11:36:35.554Z,48
2018-07-21T11:37:40.896Z,48
2018-07-21T11:38:46.382Z,48
2018-07-21T11:39:51.508Z,48
2018-07-21T11:40:56.395Z,64
2018-07-21T11:42:01.821Z,37
2018-07-21T11:43:06.776Z,37
2018-07-21T11:44:11.645Z,37
2018-07-21T11:45:17.076Z,37
2018-07-21T11:46:22.807Z,55
2018-07-21T11:47:27.673Z,55
2018-07-21T11:48:33.403Z,72
2018-07-21T11:49:38.594Z,79
2018-07-21T11:50:43.477Z,55
2018-07-21T11:51:48.743Z,55
2018-07-21T11:52:53.320Z,55
2018-07-21T11:53:58.509Z,55
2018-07-21T11:55:03.428Z,55
2018-07-21T11:56:08.325Z,37
2018-07-21T11:57:13.483Z,37
2018-07-21T11:58:19.265Z,37
2018-07-21T11:59:24.718Z,37
2018-07-21T12:00:30.124Z,37
2018-07-21T12:01:34.770Z,37
2018-07-21T12:02:39.649Z,37
2018-07-21T12:03:44.913Z,37
2018-07-21T12:04:50.457Z,64
2018-07-21T12:05:55.672Z,48
2018-07-21T12:07:00.871Z,48
2018-07-21T12:08:05.471Z,48
2018-07-21T12:09:10.640Z,48
2018-07-21T12:10:16.345Z,48
2018-07-21T12:11:21.775Z,48
2018-07-21T12:12:27.415Z,48
2018-07-21T12:13:33.155Z,48
2018-07-21T12:14:39.093Z,48
2018-07-21T12:15:44.362Z,48
2018-07-21T12:16:49.839Z,48
2018-07-21T12:17:55.273Z,48
2018-07-21T12:19:01.105Z,48
2018-07-21T12:20:05.420Z,48
2018-07-21T12:21:10.681Z,48
2018-07-21T12:22:16.268Z,48
2018-07-21T12:23:21.506Z,31
2018-07-21T12:24:40.996Z,31
2018-07-21T12:25:46.506Z,31
2018-07-21T12:26:51.929Z,31
2018-07-21T12:27:57.346Z,31
2018-07-21T12:29:02.834Z,31
2018-07-21T12:30:07.855Z,48
2018-07-21T12:31:12.994Z,48
2018-07-21T12:32:18.432Z,48
2018-07-21T12:33:23.907Z,48
2018-07-21T12:34:44.345Z,48
2018-07-21T12:35:49.753Z,48
2018-07-21T12:36:55.279Z,48
2018-07-21T12:38:00.709Z,48
2018-07-21T12:39:05.331Z,48
2018-07-21T12:40:10.913Z,48
2018-07-21T12:41:15.646Z,48
2018-07-21T12:42:21.232Z,48
2018-07-21T12:43:26.175Z,48
2018-07-21T12:44:31.051Z,48
2018-07-21T12:45:36.444Z,48
2018-07-21T12:46:41.884Z,48
2018-07-21T12:47:46.773Z,48
2018-07-21T12:48:52.171Z,48
2018-07-21T12:49:57.154Z,48
2018-07-21T12:51:02.596Z,48
2018-07-21T12:52:07.822Z,48
2018-07-21T12:53:13.288Z,48
2018-07-21T12:54:18.557Z,48
2018-07-21T12:55:24.249Z,48
2018-07-21T12:56:29.417Z,48
2018-07-21T12:57:35.279Z,48
2018-07-21T12:58:40.542Z,48
2018-07-21T12:59:45.970Z,48
2018-07-21T13:00:50.959Z,48
2018-07-21T13:01:56.115Z,48
2018-07-21T13:03:01.323Z,48
2018-07-21T13:04:05.977Z,48
2018-07-21T13:05:11.147Z,48
2018-07-21T13:06:16.580Z,48
2018-07-21T13:07:22.452Z,48
2018-07-21T13:08:27.883Z,48
2018-07-21T13:09:33.630Z,48
2018-07-21T13:10:38.790Z,48
2018-07-21T13:11:43.971Z,48
2018-07-21T13:12:49.925Z,48
2018-07-21T13:13:54.821Z,48
2018-07-21T13:14:59.968Z,48
2018-07-21T13:16:04.729Z,48
2018-07-21T13:17:09.340Z,48
2018-07-21T13:18:14.545Z,48
2018-07-21T13:19:19.941Z,48
2018-07-21T13:20:25.099Z,48
2018-07-21T13:21:31.081Z,48
2018-07-21T13:22:36.244Z,48
2018-07-21T13:23:41.680Z,48
2018-07-21T13:24:47.613Z,48
2018-07-21T13:25:53.102Z,31
2018-07-21T13:26:58.331Z,31
2018-07-21T13:28:02.738Z,31
2018-07-21T13:29:07.689Z,31
2018-07-21T13:30:13.174Z,31
2018-07-21T13:31:18.621Z,31
2018-07-21T13:32:23.813Z,31
2018-07-21T13:33:29.021Z,31
2018-07-21T13:34:34.503Z,31
2018-07-21T13:35:39.671Z,31
2018-07-21T13:36:45.077Z,31
2018-07-21T13:37:50.219Z,31
2018-07-21T13:38:55.378Z,31
2018-07-21T13:40:00.519Z,31
2018-07-21T13:41:05.675Z,31
2018-07-21T13:42:11.189Z,13
2018-07-21T13:43:16.977Z,13
2018-07-21T13:44:22.033Z,13
2018-07-21T13:45:28.132Z,13
2018-07-21T13:46:33.009Z,13
2018-07-21T13:47:38.531Z,13
2018-07-21T13:48:44.213Z,13
2018-07-21T13:49:49.386Z,13
2018-07-21T13:50:54.365Z,13
2018-07-21T13:52:00.049Z,13
2018-07-21T13:53:04.946Z,13
2018-07-21T13:54:10.150Z,13
2018-07-21T13:55:15.871Z,13
2018-07-21T13:56:21.300Z,13
2018-07-21T13:57:27.289Z,13
2018-07-21T13:58:32.754Z,13
2018-07-21T13:59:37.898Z,13
2018-07-21T14:00:43.680Z,13
2018-07-21T14:01:49.217Z,13
2018-07-21T14:02:54.404Z,13
2018-07-21T14:04:00.254Z,13
2018-07-21T14:05:05.780Z,40
2018-07-21T14:06:11.264Z,40
2018-07-21T14:07:16.980Z,40
2018-07-21T14:08:21.932Z,40
2018-07-21T14:09:27.495Z,40
2018-07-21T14:10:32.656Z,40
2018-07-21T14:11:38.086Z,40
2018-07-21T14:12:43.788Z,40
2018-07-21T14:13:49.234Z,40
2018-07-21T14:14:54.784Z,40
2018-07-21T14:16:00.408Z,24
2018-07-21T14:17:06.071Z,24
2018-07-21T14:18:11.534Z,24
2018-07-21T14:19:16.401Z,24
2018-07-21T14:20:21.923Z,24
2018-07-21T14:21:27.753Z,24
2018-07-21T14:22:32.931Z,24
2018-07-21T14:23:37.573Z,24
2018-07-21T14:24:42.689Z,24
2018-07-21T14:25:47.951Z,24
2018-07-21T14:26:53.462Z,24
2018-07-21T14:27:58.676Z,24
2018-07-21T14:29:04.159Z,24
2018-07-21T14:30:09.655Z,24
2018-07-21T14:31:15.476Z,24
2018-07-21T14:32:20.665Z,24
2018-07-21T14:33:41.023Z,24
2018-07-21T14:34:45.926Z,24
2018-07-21T14:35:51.846Z,24
2018-07-21T14:36:57.679Z,24
2018-07-21T14:38:03.111Z,24
2018-07-21T14:39:08.627Z,24
2018-07-21T14:40:14.440Z,24
2018-07-21T14:41:19.885Z,24
2018-07-21T14:42:40.477Z,24
2018-07-21T14:43:45.850Z,24
2018-07-21T14:44:50.999Z,24
2018-07-21T14:45:56.250Z,24
2018-07-21T14:47:01.432Z,24
2018-07-21T14:48:05.752Z,24
2018-07-21T14:49:10.627Z,24
2018-07-21T14:50:15.825Z,24
2018-07-21T14:51:20.690Z,24
2018-07-21T14:52:26.249Z,24
2018-07-21T14:53:31.476Z,24
2018-07-21T14:54:36.844Z,24
2018-07-21T14:55:42.372Z,24
2018-07-21T14:56:47.839Z,24
2018-07-21T14:57:52.672Z,24
2018-07-21T14:58:57.641Z,24
2018-07-21T15:00:02.254Z,24
2018-07-21T15:01:06.851Z,24
2018-07-21T15:02:12.372Z,24
2018-07-21T15:03:17.543Z,24
2018-07-21T15:04:23.276Z,24
2018-07-21T15:05:28.436Z,24
2018-07-21T15:06:34.588Z,24
2018-07-21T15:07:39.453Z,24
2018-07-21T15:08:44.907Z,24
2018-07-21T15:09:50.659Z,24
2018-07-21T15:10:56.172Z,24
2018-07-21T15:12:00.817Z,24
2018-07-21T15:13:06.079Z,24
2018-07-21T15:14:11.428Z,24
2018-07-21T15:15:16.296Z,24
2018-07-21T15:16:21.723Z,24
2018-07-21T15:17:26.370Z,24
2018-07-21T15:18:31.594Z,24
2018-07-21T15:19:36.737Z,24
2018-07-21T15:20:42.192Z,24
2018-07-21T15:21:47.622Z,24
2018-07-21T15:22:52.831Z,24
2018-07-21T15:23:58.350Z,24
2018-07-21T15:25:03.660Z,24
2018-07-21T15:26:09.130Z,24
2018-07-21T15:27:14.342Z,24
2018-07-21T15:28:19.745Z,24
2018-07-21T15:29:24.294Z,24
2018-07-21T15:30:30.470Z,24
2018-07-21T15:31:35.897Z,24
2018-07-21T15:32:40.806Z,24
2018-07-21T15:33:46.428Z,24
2018-07-21T15:34:51.572Z,24
2018-07-21T15:35:56.477Z,24
2018-07-21T15:37:02.031Z,24
2018-07-21T15:38:07.189Z,24
2018-07-21T15:39:12.664Z,24
2018-07-21T15:40:18.686Z,24
2018-07-21T15:41:24.330Z,24
2018-07-21T15:42:29.693Z,24
2018-07-21T15:43:35.130Z,24
2018-07-21T15:44:40.040Z,24
2018-07-21T15:45:45.039Z,24
2018-07-21T15:46:50.257Z,24
2018-07-21T15:47:55.797Z,24
2018-07-21T15:49:00.742Z,24
2018-07-21T15:50:05.346Z,24
2018-07-21T15:51:10.238Z,24